Terminal Aerodrome Forecast
Issued by NWS

Home | Current Version | Previous Version | Text Only | Print | Product List | Glossary On
Versions: 1 2 3 4 5 6 7 8 9 10 11 12 13 14 15 16 17 18 19 20 21 22 23 24
000
FTUS45 KBOU 191136
TAFBJC
TAF
KBJC 191136Z 1912/2012 31006KT P6SM BKN200
     FM191500 10006KT P6SM FEW120 BKN200
     FM192000 12010KT P6SM SCT120 BKN200
     FM192300 18012G18KT P6SM VCSH SCT080 BKN120 BKN200
     FM200200 28020G35KT P6SM VCSH SCT060 BKN100
     FM200400 29025G38KT P6SM FEW080 BKN200
     FM201000 29015G25KT P6SM FEW080 SCT200=

USA.gov is the U.S. government's official web portal to all federal, state and local government web resources and services.